createdAt,value
2023-03-29T00:03:52.067Z,59.76
2023-03-29T00:08:55.170Z,62.45
2023-03-29T00:13:57.957Z,68.61
2023-03-29T00:19:00.868Z,52.08
2023-03-29T00:24:03.972Z,54.05
2023-03-29T00:29:06.875Z,58.54
2023-03-29T00:34:09.982Z,66.87
2023-03-29T00:39:12.888Z,59.27
2023-03-29T00:44:34.780Z,51.68
2023-03-29T00:49:37.844Z,56.80
2023-03-29T00:54:43.729Z,60.31
2023-03-29T00:59:48.484Z,62.41
2023-03-29T01:05:16.053Z,70.21
2023-03-29T01:10:25.410Z,52.59
2023-03-29T01:15:29.525Z,56.02
2023-03-29T01:20:51.177Z,60.70
2023-03-29T01:26:01.302Z,62.13
2023-03-29T01:31:09.876Z,71.03
2023-03-29T01:36:17.522Z,53.73
2023-03-29T01:41:20.738Z,53.99
2023-03-29T01:46:43.994Z,60.16
2023-03-29T01:51:53.555Z,68.45
2023-03-29T01:56:58.622Z,52.82
2023-03-29T02:02:05.628Z,52.93
2023-03-29T02:07:10.839Z,57.67
2023-03-29T02:12:17.147Z,59.78
2023-03-29T02:17:20.003Z,61.75
2023-03-29T02:22:28.646Z,71.24
2023-03-29T02:27:31.905Z,55.46
2023-03-29T02:32:50.378Z,54.62
2023-03-29T02:37:56.221Z,60.63
2023-03-29T02:43:02.117Z,68.97
2023-03-29T02:48:08.247Z,53.98
2023-03-29T02:53:23.185Z,53.86
2023-03-29T02:58:26.817Z,60.47
2023-03-29T03:03:29.952Z,67.53
2023-03-29T03:08:33.225Z,51.80
2023-03-29T03:13:36.530Z,54.17
2023-03-29T03:18:39.337Z,58.31
2023-03-29T03:23:42.242Z,61.90
2023-03-29T03:28:45.961Z,70.59
2023-03-29T03:33:49.175Z,55.55
2023-03-29T03:38:53.385Z,53.40
2023-03-29T03:43:56.616Z,58.02
2023-03-29T03:48:59.719Z,67.72
2023-03-29T03:54:02.628Z,58.32
2023-03-29T03:59:05.680Z,53.52
2023-03-29T04:04:09.457Z,59.92
2023-03-29T04:09:13.190Z,68.50
2023-03-29T04:14:16.899Z,53.94
2023-03-29T04:19:20.182Z,55.63
2023-03-29T04:24:24.447Z,60.13
2023-03-29T04:29:29.196Z,69.14
2023-03-29T04:34:32.106Z,54.58
2023-03-29T04:39:35.117Z,54.49
2023-03-29T04:44:38.063Z,59.47
2023-03-29T04:49:41.438Z,65.87
2023-03-29T04:54:44.226Z,64.35
2023-03-29T04:59:47.144Z,52.26
2023-03-29T05:04:50.680Z,57.74
2023-03-29T05:09:53.969Z,63.89
2023-03-29T05:14:57.697Z,66.07
2023-03-29T05:20:01.500Z,52.94
2023-03-29T05:25:05.481Z,55.63
2023-03-29T05:30:09.180Z,61.14
2023-03-29T05:35:12.546Z,70.85
2023-03-29T05:40:15.876Z,57.71
2023-03-29T05:45:19.260Z,55.34
2023-03-29T05:50:22.310Z,64.17
2023-03-29T05:55:25.184Z,57.36
2023-03-29T06:00:30.341Z,58.96
2023-03-29T06:05:35.353Z,62.23
2023-03-29T06:10:39.765Z,55.81
2023-03-29T06:15:42.637Z,63.29
2023-03-29T06:20:49.442Z,57.85
2023-03-29T06:25:52.371Z,57.48
2023-03-29T06:31:04.127Z,62.24
2023-03-29T06:36:08.334Z,55.95
2023-03-29T06:41:11.830Z,63.47
2023-03-29T06:46:16.263Z,58.03
2023-03-29T06:51:21.209Z,58.75
2023-03-29T06:56:26.466Z,63.47
2023-03-29T07:01:29.341Z,55.93
2023-03-29T07:06:32.200Z,61.91
2023-03-29T07:11:35.914Z,58.29
2023-03-29T07:16:39.185Z,55.56
2023-03-29T07:21:42.877Z,63.17
2023-03-29T07:27:00.080Z,54.68
2023-03-29T07:32:06.632Z,60.10
2023-03-29T07:37:09.518Z,61.49
2023-03-29T07:42:12.474Z,51.93
2023-03-29T07:47:15.708Z,56.32
2023-03-29T07:52:18.934Z,63.32
2023-03-29T07:57:23.845Z,62.93
2023-03-29T08:02:27.471Z,51.86
2023-03-29T08:07:30.497Z,55.86
2023-03-29T08:12:33.378Z,59.97
2023-03-29T08:17:36.944Z,64.36
2023-03-29T08:22:40.584Z,53.74
2023-03-29T08:27:43.594Z,52.46
2023-03-29T08:32:49.311Z,55.29
2023-03-29T08:37:54.817Z,60.17
2023-03-29T08:43:19.850Z,56.25
2023-03-29T08:48:29.763Z,61.30
2023-03-29T08:53:44.407Z,51.91
2023-03-29T08:58:50.571Z,50.79
2023-03-29T09:04:00.464Z,54.76
2023-03-29T09:09:11.289Z,58.14
2023-03-29T09:14:30.060Z,57.78
2023-03-29T09:20:05.129Z,59.22
2023-03-29T09:25:27.542Z,55.85
2023-03-29T09:30:49.458Z,55.24
2023-03-29T09:36:04.613Z,52.46
2023-03-29T09:41:23.541Z,51.68
2023-03-29T09:46:32.829Z,50.53
2023-03-29T09:51:39.259Z,50.12
2023-03-29T09:56:45.963Z,49.81
2023-03-29T10:01:49.174Z,49.44
2023-03-29T10:06:52.805Z,47.37
2023-03-29T10:11:57.284Z,49.52
2023-03-29T10:17:00.427Z,48.95
2023-03-29T10:22:22.067Z,48.67
2023-03-29T10:27:28.179Z,45.99
2023-03-29T10:32:36.325Z,45.26
2023-03-29T10:37:50.534Z,44.88
2023-03-29T10:42:57.876Z,42.91
2023-03-29T10:48:01.732Z,42.42
2023-03-29T10:53:30.078Z,42.91
2023-03-29T10:59:09.410Z,43.14
2023-03-29T11:04:46.772Z,42.88
2023-03-29T11:10:11.324Z,42.16
2023-03-29T11:15:32.698Z,43.01
2023-03-29T11:21:02.246Z,43.45
2023-03-29T11:26:28.441Z,42.53
2023-03-29T11:31:31.341Z,42.72
2023-03-29T11:36:50.602Z,43.55
2023-03-29T11:42:00.035Z,40.37
2023-03-29T11:47:11.487Z,39.32
2023-03-29T11:52:36.912Z,39.62
2023-03-29T11:57:53.886Z,40.49
2023-03-29T12:03:07.680Z,37.19
2023-03-29T12:08:24.986Z,37.56
2023-03-29T12:13:36.847Z,37.93
2023-03-29T12:18:47.857Z,36.92
2023-03-29T12:23:52.015Z,35.57
2023-03-29T12:29:09.768Z,36.42
2023-03-29T12:34:15.248Z,36.77
2023-03-29T12:39:20.415Z,38.04
2023-03-29T12:44:24.380Z,38.69
2023-03-29T12:49:32.861Z,37.61
2023-03-29T12:54:35.706Z,38.88
2023-03-29T12:59:43.865Z,38.42
2023-03-29T13:04:55.867Z,38.34
2023-03-29T13:10:05.351Z,37.36
2023-03-29T13:15:24.838Z,37.21
2023-03-29T13:21:00.001Z,38.07
2023-03-29T13:26:22.175Z,38.21
2023-03-29T13:31:52.534Z,38.68
2023-03-29T13:36:57.916Z,37.92
2023-03-29T13:42:19.928Z,37.98
2023-03-29T13:47:25.730Z,38.14
2023-03-29T13:52:37.121Z,39.34
2023-03-29T13:57:56.875Z,38.77
2023-03-29T14:03:02.275Z,38.90
2023-03-29T14:08:08.888Z,39.17
2023-03-29T14:13:18.288Z,39.13
2023-03-29T14:18:24.084Z,39.61
2023-03-29T14:23:33.799Z,39.60
2023-03-29T14:28:37.717Z,39.64
2023-03-29T14:33:40.682Z,40.14
2023-03-29T14:38:49.057Z,39.50
2023-03-29T14:43:52.040Z,39.77
2023-03-29T14:48:56.563Z,40.47
2023-03-29T14:54:03.309Z,41.22
2023-03-29T14:59:27.547Z,41.10
2023-03-29T15:04:37.634Z,40.82
2023-03-29T15:09:40.869Z,37.73
2023-03-29T15:14:44.023Z,37.45
2023-03-29T15:19:47.032Z,38.03
2023-03-29T15:24:50.245Z,39.56
2023-03-29T15:30:02.937Z,40.86
2023-03-29T15:35:09.360Z,41.16
2023-03-29T15:40:26.511Z,42.00
2023-03-29T15:45:29.501Z,42.23
2023-03-29T15:50:32.712Z,43.06
2023-03-29T15:55:35.824Z,43.34
2023-03-29T16:00:41.809Z,43.66
2023-03-29T16:05:45.501Z,44.43
2023-03-29T16:10:49.469Z,45.22
2023-03-29T16:15:52.451Z,45.07
2023-03-29T16:20:55.561Z,45.81
2023-03-29T16:25:59.497Z,46.18
2023-03-29T16:31:02.393Z,46.64
2023-03-29T16:36:05.912Z,47.21
2023-03-29T16:41:14.984Z,48.00
2023-03-29T16:46:17.934Z,48.06
2023-03-29T16:51:21.792Z,48.65
2023-03-29T16:56:24.706Z,48.84
2023-03-29T17:01:28.150Z,49.37
2023-03-29T17:06:32.797Z,49.48
2023-03-29T17:11:36.399Z,50.13
2023-03-29T17:16:39.457Z,50.69
2023-03-29T17:21:42.601Z,50.91
2023-03-29T17:26:45.968Z,51.26
2023-03-29T17:31:49.278Z,51.81
2023-03-29T17:36:53.544Z,52.34
2023-03-29T17:41:56.761Z,51.75
2023-03-29T17:47:01.085Z,52.89
2023-03-29T17:52:04.413Z,53.11
2023-03-29T17:57:07.621Z,53.65
2023-03-29T18:02:21.411Z,54.31
2023-03-29T18:07:24.588Z,53.61
2023-03-29T18:12:28.858Z,54.62
2023-03-29T18:17:31.750Z,55.06
2023-03-29T18:22:34.633Z,55.49
2023-03-29T18:27:39.134Z,56.27
2023-03-29T18:32:42.251Z,56.74
2023-03-29T18:37:45.200Z,56.69
2023-03-29T18:42:48.094Z,55.80
2023-03-29T18:47:51.220Z,57.15
2023-03-29T18:52:54.313Z,57.48
2023-03-29T18:57:57.217Z,57.49
2023-03-29T19:03:00.232Z,57.70
2023-03-29T19:08:05.865Z,57.99
2023-03-29T19:13:08.917Z,57.96
2023-03-29T19:18:12.007Z,57.93
2023-03-29T19:23:14.911Z,58.25
2023-03-29T19:28:17.815Z,58.49
2023-03-29T19:33:21.634Z,58.38
2023-03-29T19:38:24.852Z,58.50
2023-03-29T19:43:27.755Z,58.38
2023-03-29T19:48:30.843Z,58.14
2023-03-29T19:53:38.194Z,58.14
2023-03-29T19:58:42.309Z,58.25
2023-03-29T20:03:46.555Z,58.55
2023-03-29T20:08:49.837Z,58.65
2023-03-29T20:13:52.741Z,58.83
2023-03-29T20:18:56.542Z,58.35
2023-03-29T20:23:59.477Z,58.85
2023-03-29T20:29:03.420Z,59.40
2023-03-29T20:34:06.304Z,59.92
2023-03-29T20:39:09.622Z,60.47
2023-03-29T20:44:13.782Z,60.23
2023-03-29T20:49:17.675Z,59.79
2023-03-29T20:54:20.487Z,60.84
2023-03-29T20:59:23.491Z,61.14
2023-03-29T21:04:27.085Z,61.39
2023-03-29T21:09:31.239Z,61.39
2023-03-29T21:14:34.244Z,73.24
2023-03-29T21:19:39.195Z,60.35
2023-03-29T21:24:42.117Z,48.49
2023-03-29T21:29:45.313Z,50.50
2023-03-29T21:34:48.215Z,52.00
2023-03-29T21:39:51.117Z,53.02
2023-03-29T21:44:54.120Z,53.55
2023-03-29T21:49:57.015Z,54.53
2023-03-29T21:54:59.928Z,55.30
2023-03-29T22:00:05.177Z,56.55
2023-03-29T22:05:08.681Z,58.30
2023-03-29T22:10:12.557Z,59.14
2023-03-29T22:15:15.436Z,59.44
2023-03-29T22:20:18.606Z,60.76
2023-03-29T22:25:23.055Z,60.74
2023-03-29T22:30:25.898Z,61.50
2023-03-29T22:35:28.796Z,73.16
2023-03-29T22:40:33.437Z,59.69
2023-03-29T22:45:36.560Z,47.37
2023-03-29T22:50:42.975Z,49.83
2023-03-29T22:55:46.898Z,51.45
2023-03-29T23:00:50.097Z,53.39
2023-03-29T23:05:55.951Z,54.62
2023-03-29T23:10:59.369Z,57.11
2023-03-29T23:16:03.773Z,57.98
2023-03-29T23:21:08.969Z,59.25
2023-03-29T23:26:12.058Z,60.31
2023-03-29T23:31:18.375Z,61.27
2023-03-29T23:36:23.191Z,60.56
2023-03-29T23:41:30.861Z,59.65
2023-03-29T23:46:34.107Z,60.71
2023-03-29T23:51:39.249Z,61.42
2023-03-29T23:56:42.304Z,61.58
